createdAt,value
2022-10-23T00:00:32.061Z,20.7
2022-10-23T00:01:34.872Z,20.9
2022-10-23T00:02:37.487Z,20.8
2022-10-23T00:03:40.255Z,20.7
2022-10-23T00:04:42.753Z,20.7
2022-10-23T00:05:44.662Z,20.7
2022-10-23T00:06:46.876Z,20.8
2022-10-23T00:07:49.371Z,20.7
2022-10-23T00:08:51.872Z,20.8
2022-10-23T00:09:54.061Z,20.9
2022-10-23T00:10:56.255Z,20.8
2022-10-23T00:11:58.444Z,20.8
2022-10-23T00:13:00.927Z,20.8
2022-10-23T00:14:03.402Z,20.8
2022-10-23T00:15:05.331Z,20.9
2022-10-23T00:16:07.803Z,20.9
2022-10-23T00:17:10.724Z,20.8
2022-10-23T00:18:12.895Z,21
2022-10-23T00:19:15.367Z,20.8
2022-10-23T00:20:17.591Z,20.9
2022-10-23T00:21:19.787Z,20.9
2022-10-23T00:22:22.266Z,20.8
2022-10-23T00:23:24.747Z,20.8
2022-10-23T00:24:27.231Z,21
2022-10-23T00:25:29.434Z,20.8
2022-10-23T00:26:31.629Z,20.9
2022-10-23T00:27:34.099Z,20.8
2022-10-23T00:28:36.572Z,20.9
2022-10-23T00:29:38.798Z,20.9
2022-10-23T00:30:41.266Z,20.9
2022-10-23T00:31:43.190Z,20.8
2022-10-23T00:32:45.701Z,21
2022-10-23T00:33:47.892Z,20.9
2022-10-23T00:34:50.387Z,21
2022-10-23T00:35:52.874Z,20.9
2022-10-23T00:36:55.070Z,20.9
2022-10-23T00:37:57.538Z,20.9
2022-10-23T00:39:00.018Z,20.9
2022-10-23T00:40:02.506Z,20.8
2022-10-23T00:41:04.993Z,20.9
2022-10-23T00:42:07.201Z,20.9
2022-10-23T00:43:09.679Z,21
2022-10-23T00:44:12.151Z,20.8
2022-10-23T00:45:14.625Z,21.1
2022-10-23T00:46:16.794Z,20.9
2022-10-23T00:47:18.990Z,20.9
2022-10-23T00:48:21.521Z,21
2022-10-23T00:49:23.723Z,21.1
2022-10-23T00:50:25.944Z,21
2022-10-23T00:51:28.455Z,20.9
2022-10-23T00:52:30.926Z,21
2022-10-23T00:53:33.412Z,21.1
2022-10-23T00:54:35.582Z,21
2022-10-23T00:55:38.093Z,21
2022-10-23T00:56:40.019Z,21
2022-10-23T00:57:42.492Z,21
2022-10-23T00:58:44.686Z,20.9
2022-10-23T00:59:47.156Z,21
2022-10-23T01:00:49.331Z,20.9
2022-10-23T01:01:51.561Z,21
2022-10-23T01:02:54.681Z,21
2022-10-23T01:03:57.179Z,21
2022-10-23T01:04:59.376Z,20.9
2022-10-23T01:06:01.593Z,21
2022-10-23T01:07:04.123Z,21
2022-10-23T01:08:06.306Z,21
2022-10-23T01:09:08.780Z,21
2022-10-23T01:10:11.258Z,21.1
2022-10-23T01:11:13.753Z,21
2022-10-23T01:12:15.416Z,21
2022-10-23T01:13:17.879Z,21
2022-10-23T01:14:20.077Z,21
2022-10-23T01:15:22.274Z,21.1
2022-10-23T01:16:24.749Z,21.1
2022-10-23T01:17:27.215Z,21
2022-10-23T01:18:29.696Z,21.1
2022-10-23T01:19:32.194Z,21.1
2022-10-23T01:20:34.136Z,20.9
2022-10-23T01:21:36.336Z,21.1
2022-10-23T01:22:38.905Z,21.1
2022-10-23T01:23:42.567Z,21
2022-10-23T01:24:45.036Z,21.1
2022-10-23T01:25:46.959Z,21
2022-10-23T01:26:49.453Z,21
2022-10-23T01:27:51.925Z,21.1
2022-10-23T01:28:54.399Z,21.1
2022-10-23T01:29:56.594Z,21
2022-10-23T01:30:58.789Z,21
2022-10-23T01:32:00.964Z,21.1
2022-10-23T01:33:03.430Z,21.1
2022-10-23T01:34:05.629Z,21
2022-10-23T01:35:08.139Z,21
2022-10-23T01:36:10.617Z,21.1
2022-10-23T01:37:12.812Z,21.1
2022-10-23T01:38:15.047Z,21
2022-10-23T01:39:17.535Z,21.1
2022-10-23T01:40:20.027Z,21.1
2022-10-23T01:41:22.500Z,21
2022-10-23T01:42:24.992Z,21.1
2022-10-23T01:43:27.477Z,21.1
2022-10-23T01:44:29.949Z,21.1
2022-10-23T01:45:31.869Z,21
2022-10-23T01:46:34.337Z,21
2022-10-23T01:47:35.970Z,21.1
2022-10-23T01:48:38.180Z,21
2022-10-23T01:49:40.467Z,21.2
2022-10-23T01:50:43.010Z,21.1
2022-10-23T01:51:45.205Z,21.1
2022-10-23T01:52:47.417Z,21.1
2022-10-23T01:53:49.634Z,21.1
2022-10-23T01:54:52.119Z,21.2
2022-10-23T01:55:54.052Z,21
2022-10-23T01:56:56.246Z,21.1
2022-10-23T01:57:58.729Z,21.1
2022-10-23T01:59:01.206Z,21.2
2022-10-23T02:00:03.394Z,21.1
2022-10-23T02:01:05.979Z,21
2022-10-23T02:02:08.749Z,21.2
2022-10-23T02:03:11.673Z,21.1
2022-10-23T02:04:13.850Z,21
2022-10-23T02:05:15.765Z,21.1
2022-10-23T02:06:17.988Z,21.1
2022-10-23T02:07:20.190Z,21.1
2022-10-23T02:08:22.083Z,21.1
2022-10-23T02:09:24.582Z,21.1
2022-10-23T02:10:27.067Z,21.1
2022-10-23T02:11:29.245Z,21.1
2022-10-23T02:12:31.455Z,21.2
2022-10-23T02:13:34.086Z,21
2022-10-23T02:14:36.561Z,21.1
2022-10-23T02:15:39.027Z,21.2
2022-10-23T02:16:41.229Z,21.1
2022-10-23T02:17:44.089Z,21.1
2022-10-23T02:18:47.030Z,21.1
2022-10-23T02:19:49.226Z,21
2022-10-23T02:20:51.702Z,21.1
2022-10-23T02:21:54.208Z,21
2022-10-23T02:22:56.694Z,21
2022-10-23T02:23:58.618Z,21
2022-10-23T02:25:01.120Z,21.1
2022-10-23T02:26:03.322Z,21.2
2022-10-23T02:27:05.815Z,21.2
2022-10-23T02:28:08.289Z,21.2
2022-10-23T02:29:10.542Z,21.1
2022-10-23T02:30:12.726Z,21.1
2022-10-23T02:31:14.936Z,21.2
2022-10-23T02:32:17.402Z,21
2022-10-23T02:33:19.598Z,21.1
2022-10-23T02:34:22.074Z,21
2022-10-23T02:35:24.253Z,21.1
2022-10-23T02:36:26.166Z,21.2
2022-10-23T02:37:28.676Z,21.1
2022-10-23T02:38:31.154Z,21
2022-10-23T02:39:33.624Z,21.2
2022-10-23T02:40:35.823Z,21.2
2022-10-23T02:41:37.741Z,21.2
2022-10-23T02:42:39.930Z,21.2
2022-10-23T02:43:42.134Z,21.1
2022-10-23T02:44:44.616Z,21.2
2022-10-23T02:45:47.101Z,21.2
2022-10-23T02:46:49.290Z,21.2
2022-10-23T02:47:51.508Z,21.2
2022-10-23T02:48:53.697Z,21.2
2022-10-23T02:49:56.169Z,21.2
2022-10-23T02:50:58.635Z,21.2
2022-10-23T02:52:00.830Z,21.1
2022-10-23T02:53:03.059Z,21.1
2022-10-23T02:54:05.254Z,21.2
2022-10-23T02:55:07.445Z,21.1
2022-10-23T02:56:09.391Z,21.1
2022-10-23T02:57:11.886Z,21.3
2022-10-23T02:58:14.069Z,21.1
2022-10-23T02:59:16.275Z,21.1
2022-10-23T03:00:18.493Z,21
2022-10-23T03:01:21.163Z,21.1
2022-10-23T03:02:25.692Z,21.2
2022-10-23T03:03:28.693Z,21.1
2022-10-23T03:04:31.373Z,21.2
2022-10-23T03:05:33.563Z,21.1
2022-10-23T03:06:36.157Z,21
2022-10-23T03:07:38.629Z,21.1
2022-10-23T03:08:41.951Z,21
2022-10-23T03:09:44.440Z,21
2022-10-23T03:11:50.288Z,20.9
2022-10-23T03:12:52.477Z,21
2022-10-23T03:13:54.676Z,21
2022-10-23T03:14:57.150Z,21
2022-10-23T03:15:59.370Z,21
2022-10-23T03:17:01.565Z,21
2022-10-23T03:18:04.037Z,21
2022-10-23T03:19:06.044Z,21.1
2022-10-23T03:20:08.770Z,20.9
2022-10-23T03:21:11.594Z,20.9
2022-10-23T03:22:13.791Z,20.9
2022-10-23T03:23:16.251Z,20.9
2022-10-23T03:24:18.760Z,20.8
2022-10-23T03:25:21.224Z,20.9
2022-10-23T03:26:23.701Z,20.8
2022-10-23T03:27:26.291Z,21
2022-10-23T03:28:29.559Z,20.8
2022-10-23T03:29:31.730Z,21
2022-10-23T03:30:33.937Z,20.7
2022-10-23T03:31:36.465Z,20.7
2022-10-23T03:32:38.680Z,20.9
2022-10-23T03:33:41.064Z,20.8
2022-10-23T03:34:43.533Z,20.9
2022-10-23T03:35:45.885Z,20.8
2022-10-23T03:36:49.111Z,20.9
2022-10-23T03:37:51.575Z,20.9
2022-10-23T03:38:54.049Z,20.7
2022-10-23T03:39:56.250Z,20.8
2022-10-23T03:40:58.720Z,20.8
2022-10-23T03:42:00.918Z,20.7
2022-10-23T03:43:02.855Z,20.7
2022-10-23T03:45:07.687Z,20.8
2022-10-23T03:46:10.158Z,20.7
2022-10-23T03:47:12.668Z,20.7
2022-10-23T03:48:14.863Z,20.7
2022-10-23T03:49:17.056Z,20.7
2022-10-23T03:50:18.970Z,20.8
2022-10-23T03:51:21.446Z,20.8
2022-10-23T03:53:27.148Z,20.8
2022-10-23T03:54:29.623Z,20.8
2022-10-23T03:55:32.130Z,20.6
2022-10-23T03:56:34.605Z,20.7
2022-10-23T03:57:37.094Z,20.7
2022-10-23T03:58:39.584Z,20.6
2022-10-23T03:59:41.536Z,20.6
2022-10-23T04:01:46.676Z,20.8
2022-10-23T04:02:49.887Z,20.5
2022-10-23T04:03:52.089Z,20.8
2022-10-23T04:04:54.556Z,20.7
2022-10-23T04:05:56.464Z,20.7
2022-10-23T04:06:59.128Z,20.7
2022-10-23T04:08:01.803Z,20.8
2022-10-23T04:09:04.135Z,20.7
2022-10-23T04:10:06.813Z,20.7
2022-10-23T04:11:09.077Z,20.7
2022-10-23T04:12:11.551Z,20.7
2022-10-23T04:13:13.759Z,20.6
2022-10-23T04:14:15.991Z,20.7
2022-10-23T04:15:18.480Z,20.6
2022-10-23T04:16:20.671Z,20.6
2022-10-23T04:17:23.037Z,20.7
2022-10-23T04:18:25.525Z,20.6
2022-10-23T04:19:27.995Z,20.5
2022-10-23T04:20:30.194Z,20.7
2022-10-23T04:21:32.667Z,20.5
2022-10-23T04:22:35.140Z,20.6
2022-10-23T04:23:37.343Z,20.7
2022-10-23T04:24:39.815Z,20.7
2022-10-23T04:25:42.384Z,20.6
2022-10-23T04:26:45.057Z,20.7
2022-10-23T04:27:47.540Z,20.7
2022-10-23T04:28:49.738Z,20.6
2022-10-23T04:30:57.219Z,20.6
2022-10-23T04:31:59.426Z,20.7
2022-10-23T04:33:01.651Z,20.6
2022-10-23T04:35:07.713Z,20.6
2022-10-23T04:36:10.188Z,20.6
2022-10-23T04:37:12.651Z,20.7
2022-10-23T04:38:15.160Z,20.6
2022-10-23T04:39:17.619Z,20.6
2022-10-23T04:40:19.546Z,20.6
2022-10-23T04:41:21.457Z,20.6
2022-10-23T04:42:24.092Z,20.6
2022-10-23T04:43:26.405Z,20.6
2022-10-23T04:44:28.881Z,20.5
2022-10-23T04:45:31.071Z,20.6
2022-10-23T04:46:33.295Z,20.5
2022-10-23T04:47:35.768Z,20.6
2022-10-23T04:48:38.239Z,20.6
2022-10-23T04:49:40.738Z,20.6
2022-10-23T04:50:42.976Z,20.7
2022-10-23T04:51:49.706Z,20.5
2022-10-23T04:52:52.188Z,20.5
2022-10-23T04:53:54.376Z,20.7
2022-10-23T04:54:56.292Z,20.5
2022-10-23T04:55:58.471Z,20.5
2022-10-23T04:57:00.940Z,20.6
2022-10-23T04:58:03.443Z,20.6
2022-10-23T05:00:08.591Z,20.6
2022-10-23T05:01:10.792Z,20.5
2022-10-23T05:02:13.650Z,20.7
2022-10-23T05:03:16.145Z,20.5
2022-10-23T05:04:18.607Z,20.6
2022-10-23T05:05:20.837Z,20.5
2022-10-23T05:06:23.337Z,20.5
2022-10-23T05:07:24.993Z,20.6
2022-10-23T05:08:27.452Z,20.6
2022-10-23T05:09:29.377Z,20.7
2022-10-23T05:10:31.273Z,20.5
2022-10-23T05:11:33.749Z,20.7
2022-10-23T05:12:36.216Z,20.5
2022-10-23T05:13:38.742Z,20.5
2022-10-23T05:14:41.002Z,20.6
2022-10-23T05:16:46.011Z,20.5
2022-10-23T05:17:48.256Z,20.6
2022-10-23T05:18:50.468Z,20.6
2022-10-23T05:19:52.658Z,20.5
2022-10-23T05:20:55.143Z,20.4
2022-10-23T05:21:57.618Z,20.6
2022-10-23T05:22:59.819Z,20.5
2022-10-23T05:24:02.595Z,20.6
2022-10-23T05:25:04.808Z,20.6
2022-10-23T05:26:07.443Z,20.6
2022-10-23T05:27:09.631Z,20.7
2022-10-23T05:28:12.104Z,20.7
2022-10-23T05:29:14.608Z,20.5
2022-10-23T05:30:16.818Z,20.6
2022-10-23T05:31:19.308Z,20.5
2022-10-23T05:33:24.064Z,20.6
2022-10-23T05:34:26.546Z,20.7
2022-10-23T05:35:29.007Z,20.7
2022-10-23T05:36:31.502Z,20.5
2022-10-23T05:37:33.972Z,20.6
2022-10-23T05:38:36.167Z,20.5
2022-10-23T05:39:38.368Z,20.4
2022-10-23T05:40:40.679Z,20.6
2022-10-23T05:41:42.890Z,20.6
2022-10-23T05:42:45.916Z,20.5
2022-10-23T05:43:50.207Z,20.5
2022-10-23T05:44:52.800Z,20.5
2022-10-23T05:45:54.726Z,20.5
2022-10-23T05:46:56.926Z,20.6
2022-10-23T05:49:04.142Z,20.7
2022-10-23T05:50:06.074Z,20.5
2022-10-23T05:51:08.269Z,20.7
2022-10-23T05:52:10.760Z,20.5
2022-10-23T05:53:12.950Z,20.6
2022-10-23T05:54:15.421Z,20.4
2022-10-23T05:55:17.328Z,20.5
2022-10-23T05:56:19.807Z,20.5
2022-10-23T05:57:22.279Z,20.5
2022-10-23T05:58:24.758Z,20.6
2022-10-23T05:59:27.224Z,20.4
2022-10-23T06:00:29.625Z,20.5
2022-10-23T06:01:32.253Z,20.6
2022-10-23T06:02:35.172Z,20.6
2022-10-23T06:03:37.697Z,20.5
2022-10-23T06:04:40.205Z,20.6
2022-10-23T06:05:42.438Z,20.6
2022-10-23T06:06:44.941Z,20.6
2022-10-23T06:07:47.332Z,20.6
2022-10-23T06:08:49.250Z,20.6
2022-10-23T06:09:51.147Z,20.5
2022-10-23T06:10:53.065Z,20.5
2022-10-23T06:11:55.252Z,20.7
2022-10-23T06:12:57.727Z,20.4
2022-10-23T06:13:59.922Z,20.6
2022-10-23T06:15:02.781Z,20.4
2022-10-23T06:17:10.268Z,20.4
2022-10-23T06:18:12.442Z,20.5
2022-10-23T06:19:14.639Z,20.5
2022-10-23T06:20:16.845Z,20.4
2022-10-23T06:21:19.334Z,20.4
2022-10-23T06:22:21.814Z,20.5
2022-10-23T06:23:24.020Z,20.6
2022-10-23T06:24:25.979Z,20.5
2022-10-23T06:25:28.151Z,20.4
2022-10-23T06:26:30.343Z,20.5
2022-10-23T06:27:32.851Z,20.5
2022-10-23T06:28:34.788Z,20.5
2022-10-23T06:29:37.260Z,20.6
2022-10-23T06:30:39.494Z,20.5
2022-10-23T06:31:41.718Z,20.4
2022-10-23T06:32:44.775Z,20.4
2022-10-23T06:33:48.017Z,20.5
2022-10-23T06:34:49.942Z,20.6
2022-10-23T06:35:52.162Z,20.6
2022-10-23T06:36:54.665Z,20.5
2022-10-23T06:37:57.133Z,20.5
2022-10-23T06:40:03.134Z,20.6
2022-10-23T06:41:05.616Z,20.5
2022-10-23T06:42:07.810Z,20.5
2022-10-23T06:43:10.651Z,20.5
2022-10-23T06:44:12.557Z,20.5
2022-10-23T06:45:14.480Z,20.4
2022-10-23T06:46:16.671Z,20.4
2022-10-23T06:47:19.204Z,20.4
2022-10-23T06:48:21.671Z,20.5
2022-10-23T06:49:24.150Z,20.6
2022-10-23T06:50:26.353Z,20.5
2022-10-23T06:51:28.995Z,20.4
2022-10-23T06:53:36.196Z,20.6
2022-10-23T06:54:38.412Z,20.5
2022-10-23T06:55:40.782Z,20.6
2022-10-23T06:56:42.986Z,20.5
2022-10-23T06:57:46.236Z,20.5
2022-10-23T06:58:49.262Z,20.4
2022-10-23T06:59:51.732Z,20.5
2022-10-23T07:00:54.391Z,20.5
2022-10-23T07:01:57.210Z,20.4
2022-10-23T07:02:59.717Z,20.4
2022-10-23T07:04:01.646Z,20.6
2022-10-23T07:05:04.131Z,20.4
2022-10-23T07:06:11.662Z,20.4
2022-10-23T07:07:14.178Z,20.4
2022-10-23T07:08:16.658Z,20.6
2022-10-23T07:09:18.582Z,20.3
2022-10-23T07:10:21.069Z,20.5
2022-10-23T07:11:23.553Z,20.5
2022-10-23T07:12:25.747Z,20.5
2022-10-23T07:13:27.956Z,20.5
2022-10-23T07:14:30.429Z,20.6
2022-10-23T07:15:32.340Z,20.5
2022-10-23T07:16:34.807Z,20.6
2022-10-23T07:17:36.761Z,20.5
2022-10-23T07:18:38.971Z,20.6
2022-10-23T07:19:41.449Z,20.5
2022-10-23T07:20:43.355Z,20.5
2022-10-23T07:21:45.541Z,20.4
2022-10-23T07:22:48.044Z,20.5
2022-10-23T07:23:50.534Z,20.6
2022-10-23T07:24:53.025Z,20.4
2022-10-23T07:25:55.524Z,20.6
2022-10-23T07:26:58.008Z,20.6
2022-10-23T07:28:00.213Z,20.5
2022-10-23T07:29:02.412Z,20.5
2022-10-23T07:30:04.892Z,20.4
2022-10-23T07:31:07.364Z,20.5
2022-10-23T07:32:09.563Z,20.5
2022-10-23T07:33:12.185Z,20.6
2022-10-23T07:34:14.420Z,20.6
2022-10-23T07:35:16.633Z,20.4
2022-10-23T07:36:18.853Z,20.4
2022-10-23T07:37:21.338Z,20.5
2022-10-23T07:38:23.839Z,20.4
2022-10-23T07:39:26.325Z,20.5
2022-10-23T07:40:28.255Z,20.6
2022-10-23T07:41:30.487Z,20.5
2022-10-23T07:42:32.964Z,20.4
2022-10-23T07:43:35.144Z,20.4
2022-10-23T07:44:37.613Z,20.5
2022-10-23T07:45:39.784Z,20.6
2022-10-23T07:46:41.980Z,20.5
2022-10-23T07:47:45.322Z,20.4
2022-10-23T07:48:48.206Z,20.3
2022-10-23T07:49:50.479Z,20.5
2022-10-23T07:50:52.689Z,20.6
2022-10-23T07:51:55.061Z,20.5
2022-10-23T07:52:57.402Z,20.4
2022-10-23T07:53:59.890Z,20.5
2022-10-23T07:55:02.377Z,20.5
2022-10-23T07:56:04.575Z,20.3
2022-10-23T07:57:07.086Z,20.4
2022-10-23T07:58:09.553Z,20.6
2022-10-23T07:59:11.748Z,20.5
2022-10-23T08:00:14.083Z,20.3
2022-10-23T08:01:16.617Z,20.5
2022-10-23T08:02:19.501Z,20.4
2022-10-23T08:03:21.955Z,20.5
2022-10-23T08:04:24.175Z,20.6
2022-10-23T08:05:26.680Z,20.4
2022-10-23T08:06:28.903Z,20.4
2022-10-23T08:07:31.108Z,20.5
2022-10-23T08:08:33.657Z,20.4
2022-10-23T08:09:35.614Z,20.4
2022-10-23T08:10:38.098Z,20.3
2022-10-23T08:11:40.570Z,20.5
2022-10-23T08:12:43.730Z,20.4
2022-10-23T08:13:46.911Z,20.5
2022-10-23T08:14:49.123Z,20.5
2022-10-23T08:15:51.602Z,20.5
2022-10-23T08:16:54.218Z,20.4
2022-10-23T08:17:56.619Z,20.4
2022-10-23T08:18:59.104Z,20.4
2022-10-23T08:20:01.573Z,20.5
2022-10-23T08:21:04.070Z,20.5
2022-10-23T08:22:06.249Z,20.5
2022-10-23T08:23:08.448Z,20.4
2022-10-23T08:24:10.378Z,20.6
2022-10-23T08:25:13.011Z,20.5
2022-10-23T08:26:15.815Z,20.4
2022-10-23T08:27:17.741Z,20.3
2022-10-23T08:28:20.235Z,20.4
2022-10-23T08:29:22.721Z,20.4
2022-10-23T08:30:25.190Z,20.4
2022-10-23T08:31:27.678Z,20.4
2022-10-23T08:32:29.864Z,20.4
2022-10-23T08:33:32.060Z,20.4
2022-10-23T08:34:33.700Z,20.4
2022-10-23T08:35:36.212Z,20.4
2022-10-23T08:36:38.423Z,20.4
2022-10-23T08:37:41.386Z,20.4
2022-10-23T08:38:45.157Z,20.3
2022-10-23T08:40:52.657Z,20.5
2022-10-23T08:41:54.587Z,20.4
2022-10-23T08:42:57.058Z,20.3
2022-10-23T08:43:59.580Z,20.5
2022-10-23T08:45:02.048Z,20.4
2022-10-23T08:47:09.514Z,20.5
2022-10-23T08:48:12.000Z,20.5
2022-10-23T08:49:14.469Z,20.4
2022-10-23T08:50:16.805Z,20.4
2022-10-23T08:51:19.196Z,20.6
2022-10-23T08:52:21.711Z,20.4
2022-10-23T08:53:24.175Z,20.4
2022-10-23T08:54:26.660Z,20.3
2022-10-23T08:55:29.131Z,20.5
2022-10-23T08:56:31.647Z,20.5
2022-10-23T08:57:33.863Z,20.4
2022-10-23T08:58:40.402Z,20.4
2022-10-23T08:59:43.203Z,20.4
2022-10-23T09:00:45.345Z,20.2
2022-10-23T09:01:47.878Z,20.4
2022-10-23T09:02:50.889Z,20.3
2022-10-23T09:03:53.090Z,20.4
2022-10-23T09:04:55.277Z,20.4
2022-10-23T09:05:57.766Z,20.3
2022-10-23T09:07:00.387Z,20.3
2022-10-23T09:08:03.146Z,20.4
2022-10-23T09:09:05.320Z,20.5
2022-10-23T09:10:07.524Z,20.5
2022-10-23T09:11:09.734Z,20.4
2022-10-23T09:12:11.974Z,20.3
2022-10-23T09:13:14.479Z,20.5
2022-10-23T09:14:16.964Z,20.5
2022-10-23T09:15:19.174Z,20.4
2022-10-23T09:16:21.665Z,20.4
2022-10-23T09:17:24.146Z,20.4
2022-10-23T09:18:26.073Z,20.2
2022-10-23T09:19:28.275Z,20.3
2022-10-23T09:20:30.748Z,20.4
2022-10-23T09:21:32.926Z,20.3
2022-10-23T09:22:35.404Z,20.4
2022-10-23T09:23:37.644Z,20.4
2022-10-23T09:24:40.675Z,20.3
2022-10-23T09:25:42.911Z,20.4
2022-10-23T09:26:45.113Z,20.4
2022-10-23T09:28:52.315Z,20.4
2022-10-23T09:29:54.808Z,20.4
2022-10-23T09:30:57.297Z,20.4
2022-10-23T09:31:59.261Z,20.4
2022-10-23T09:33:01.750Z,20.4
2022-10-23T09:34:07.455Z,20.3
2022-10-23T09:35:10.870Z,20.4
2022-10-23T09:36:13.353Z,20.3
2022-10-23T09:37:15.848Z,20.4
2022-10-23T09:38:18.335Z,20.4
2022-10-23T09:39:20.842Z,20.4
2022-10-23T09:40:22.756Z,20.3
2022-10-23T09:41:24.681Z,20.3
2022-10-23T09:42:26.593Z,20.4
2022-10-23T09:43:28.787Z,20.4
2022-10-23T09:44:30.741Z,20.3
2022-10-23T09:45:33.233Z,20.4
2022-10-23T09:46:35.749Z,20.3
2022-10-23T09:47:38.409Z,20.4
2022-10-23T09:48:41.109Z,20.3
2022-10-23T09:49:43.037Z,20.3
2022-10-23T09:50:45.517Z,20.3
2022-10-23T09:51:47.804Z,20.4
2022-10-23T09:52:49.721Z,20.3
2022-10-23T09:53:51.639Z,20.4
2022-10-23T09:54:53.857Z,20.4
2022-10-23T09:55:55.761Z,20.3
2022-10-23T09:56:57.947Z,20.4
2022-10-23T09:57:59.583Z,20.3
2022-10-23T09:59:02.093Z,20.3
2022-10-23T10:00:04.614Z,20.3
2022-10-23T10:01:07.103Z,20.4
2022-10-23T10:02:10.314Z,20.5
2022-10-23T10:03:13.419Z,20.4
2022-10-23T10:04:15.916Z,20.4
2022-10-23T10:05:18.097Z,20.5
2022-10-23T10:06:20.296Z,20.4
2022-10-23T10:07:22.488Z,20.6
2022-10-23T10:08:24.701Z,20.6
2022-10-23T10:09:26.897Z,20.4
2022-10-23T10:10:29.420Z,20.4
2022-10-23T10:11:31.909Z,20.3
2022-10-23T10:12:34.118Z,20.3
2022-10-23T10:13:36.597Z,20.4
2022-10-23T10:14:38.492Z,20.4
2022-10-23T10:15:40.996Z,20.4
2022-10-23T10:16:43.263Z,20.4
2022-10-23T10:17:46.286Z,20.5
2022-10-23T10:18:48.868Z,20.4
2022-10-23T10:19:51.067Z,20.6
2022-10-23T10:20:53.271Z,20.5
2022-10-23T10:21:55.473Z,20.4
2022-10-23T10:22:58.094Z,20.4
2022-10-23T10:23:59.748Z,20.4
2022-10-23T10:25:01.659Z,20.4
2022-10-23T10:26:03.324Z,20.5
2022-10-23T10:27:05.529Z,20.4
2022-10-23T10:28:07.720Z,20.3
2022-10-23T10:29:09.920Z,20.3
2022-10-23T10:30:11.857Z,20.4
2022-10-23T10:31:14.357Z,20.2
2022-10-23T10:32:16.838Z,20.3
2022-10-23T10:33:19.061Z,20.3
2022-10-23T10:34:21.523Z,20.3
2022-10-23T10:35:23.449Z,20.6
2022-10-23T10:37:28.461Z,20.4
2022-10-23T10:38:30.930Z,20.4
2022-10-23T10:39:32.868Z,20.3
2022-10-23T10:40:34.776Z,20.4
2022-10-23T10:41:36.996Z,20.3
2022-10-23T10:42:39.465Z,20.3
2022-10-23T10:43:41.656Z,20.4
2022-10-23T10:44:43.856Z,20.4
2022-10-23T10:45:46.354Z,20.3
2022-10-23T10:46:48.582Z,20.4
2022-10-23T10:47:50.791Z,20.4
2022-10-23T10:48:53.014Z,20.4
2022-10-23T10:49:55.496Z,20.4
2022-10-23T10:50:57.693Z,20.4
2022-10-23T10:51:59.870Z,20.4
2022-10-23T10:53:02.366Z,20.4
2022-10-23T10:54:04.888Z,20.3
2022-10-23T10:55:06.787Z,20.4
2022-10-23T10:57:12.897Z,20.4
2022-10-23T10:58:15.102Z,20.3
2022-10-23T10:59:17.006Z,20.4
2022-10-23T11:00:19.217Z,20.4
2022-10-23T11:01:21.708Z,20.3
2022-10-23T11:02:24.865Z,20.3
2022-10-23T11:03:27.505Z,20.4
2022-10-23T11:04:29.784Z,20.5
2022-10-23T11:05:32.254Z,20.4
2022-10-23T11:06:34.747Z,20.5
2022-10-23T11:07:37.229Z,20.3
2022-10-23T11:09:43.843Z,20.4
2022-10-23T11:10:46.333Z,20.3
2022-10-23T11:11:48.521Z,20.4
2022-10-23T11:12:51.151Z,20.3
2022-10-23T11:13:53.665Z,20.5
2022-10-23T11:14:55.862Z,20.2
2022-10-23T11:15:58.074Z,20.3
2022-10-23T11:17:00.575Z,20.4
2022-10-23T11:18:02.787Z,20.4
2022-10-23T11:20:10.288Z,20.4
2022-10-23T11:21:12.535Z,20.4
2022-10-23T11:22:15.006Z,20.3
2022-10-23T11:23:17.473Z,20.4
2022-10-23T11:24:19.646Z,20.4
2022-10-23T11:25:21.861Z,20.4
2022-10-23T11:26:24.032Z,20.4
2022-10-23T11:27:26.266Z,20.3
2022-10-23T11:28:28.767Z,20.4
2022-10-23T11:29:30.968Z,20.5
2022-10-23T11:30:33.145Z,20.4
2022-10-23T11:31:35.074Z,20.3
2022-10-23T11:32:37.577Z,20.4
2022-10-23T11:34:45.095Z,20.5
2022-10-23T11:35:47.606Z,20.4
2022-10-23T11:36:50.093Z,20.4
2022-10-23T11:37:51.447Z,20.4
2022-10-23T11:38:53.651Z,20.4
2022-10-23T11:39:55.848Z,20.3
2022-10-23T11:40:58.321Z,20.4
2022-10-23T11:42:00.800Z,20.2
2022-10-23T11:43:03.265Z,20.6
2022-10-23T11:44:05.769Z,20.4
2022-10-23T11:45:07.974Z,20.4
2022-10-23T11:46:10.458Z,20.3
2022-10-23T11:47:12.647Z,20.4
2022-10-23T11:48:15.137Z,20.4
2022-10-23T11:49:17.611Z,20.3
2022-10-23T11:50:20.299Z,20.5
2022-10-23T11:51:22.534Z,20.4
2022-10-23T11:52:24.483Z,20.4
2022-10-23T11:53:26.950Z,20.4
2022-10-23T11:54:29.155Z,20.3
2022-10-23T11:55:31.055Z,20.3
2022-10-23T11:56:33.532Z,20.4
2022-10-23T11:57:36.007Z,20.4
2022-10-23T11:58:38.214Z,20.4
2022-10-23T11:59:40.717Z,20.3
2022-10-23T12:00:43.191Z,20.3
2022-10-23T12:01:46.058Z,20.5
2022-10-23T12:02:49.355Z,20.4
2022-10-23T12:03:56.652Z,20.3
2022-10-23T12:04:59.132Z,20.4
2022-10-23T12:06:01.344Z,20.5
2022-10-23T12:07:03.847Z,20.4
2022-10-23T12:08:06.341Z,20.4
2022-10-23T12:09:08.841Z,20.4
2022-10-23T12:10:11.196Z,20.4
2022-10-23T12:11:13.783Z,20.4
2022-10-23T12:12:16.279Z,20.2
2022-10-23T12:13:18.538Z,20.3
2022-10-23T12:14:20.469Z,20.4
2022-10-23T12:15:23.008Z,20.4
2022-10-23T12:16:25.524Z,20.3
2022-10-23T12:17:27.730Z,20.2
2022-10-23T12:18:30.231Z,20.5
2022-10-23T12:19:32.449Z,20.5
2022-10-23T12:20:34.917Z,20.5
2022-10-23T12:21:37.142Z,20.4
2022-10-23T12:22:39.095Z,20.4
2022-10-23T12:24:46.646Z,20.4
2022-10-23T12:25:49.154Z,20.4
2022-10-23T12:26:51.354Z,20.4
2022-10-23T12:27:53.834Z,20.2
2022-10-23T12:28:56.025Z,20.1
2022-10-23T12:29:58.255Z,20.3
2022-10-23T12:31:00.761Z,20.4
2022-10-23T12:32:02.962Z,20.2
2022-10-23T12:33:05.171Z,20.3
2022-10-23T12:34:07.668Z,20.5
2022-10-23T12:35:09.880Z,20.4
2022-10-23T12:36:12.374Z,20.3
2022-10-23T12:37:14.295Z,20.2
2022-10-23T12:38:16.803Z,20.4
2022-10-23T12:39:19.292Z,20.4
2022-10-23T12:40:21.836Z,20.4
2022-10-23T12:41:24.028Z,20.5
2022-10-23T12:42:26.507Z,20.4
2022-10-23T12:43:28.693Z,20.4
2022-10-23T12:44:30.901Z,20.4
2022-10-23T12:45:33.131Z,20.3
2022-10-23T12:46:35.766Z,20.4
2022-10-23T12:48:40.810Z,20.4
2022-10-23T12:49:43.009Z,20.4
2022-10-23T12:50:45.205Z,20.4
2022-10-23T12:51:47.672Z,20.5
2022-10-23T12:52:50.185Z,20.4
2022-10-23T12:53:52.687Z,20.4
2022-10-23T12:54:54.921Z,20.3
2022-10-23T12:55:56.626Z,20.2
2022-10-23T12:56:58.860Z,20.4
2022-10-23T12:58:01.089Z,20.4
2022-10-23T12:59:03.596Z,20.4
2022-10-23T13:00:05.806Z,20.3
2022-10-23T13:01:08.358Z,20.4
2022-10-23T13:02:11.895Z,20.4
2022-10-23T13:03:14.182Z,20.4
2022-10-23T13:04:16.441Z,20.4
2022-10-23T13:05:19.975Z,20.4
2022-10-23T13:06:22.188Z,20.4
2022-10-23T13:07:24.679Z,20.5
2022-10-23T13:08:26.322Z,20.5
2022-10-23T13:09:28.816Z,20.4
2022-10-23T13:10:31.028Z,20.4
2022-10-23T13:11:32.703Z,20.4
2022-10-23T13:12:35.003Z,20.3
2022-10-23T13:13:37.234Z,20.4
2022-10-23T13:15:44.700Z,20.4
2022-10-23T13:16:46.973Z,20.3
2022-10-23T13:17:49.480Z,20.4
2022-10-23T13:18:51.961Z,20.5
2022-10-23T13:19:54.425Z,20.3
2022-10-23T13:20:57.061Z,20.2
2022-10-23T13:21:59.577Z,20.2
2022-10-23T13:23:02.074Z,20.4
2022-10-23T13:24:04.003Z,20.4
2022-10-23T13:25:06.214Z,20.3
2022-10-23T13:26:08.702Z,20.4
2022-10-23T13:27:11.188Z,20.3
2022-10-23T13:28:13.651Z,20.3
2022-10-23T13:29:16.262Z,20.4
2022-10-23T13:30:18.928Z,20.3
2022-10-23T13:31:21.163Z,20.3
2022-10-23T13:32:23.642Z,20.3
2022-10-23T13:33:26.154Z,20.3
2022-10-23T13:34:28.403Z,20.4
2022-10-23T13:35:30.058Z,20.4
2022-10-23T13:36:32.267Z,20.2
2022-10-23T13:37:34.606Z,20.4
2022-10-23T13:38:36.986Z,20.4
2022-10-23T13:39:39.207Z,20.3
2022-10-23T13:40:41.705Z,20.4
2022-10-23T13:41:43.719Z,20.3
2022-10-23T13:42:46.802Z,20.3
2022-10-23T13:43:49.495Z,20.2
2022-10-23T13:44:51.971Z,20.5
2022-10-23T13:45:54.380Z,20.4
2022-10-23T13:46:56.791Z,20.4
2022-10-23T13:47:59.269Z,20.4
2022-10-23T13:49:01.785Z,20.3
2022-10-23T13:50:03.714Z,20.4
2022-10-23T13:51:05.902Z,20.3
2022-10-23T13:52:08.388Z,20.3
2022-10-23T13:53:10.861Z,20.4
2022-10-23T13:54:13.477Z,20.3
2022-10-23T13:55:16.341Z,20.3
2022-10-23T13:56:18.833Z,20.3
2022-10-23T13:57:21.311Z,20.3
2022-10-23T13:58:23.793Z,20.6
2022-10-23T13:59:25.983Z,20.4
2022-10-23T14:00:28.463Z,20.2
2022-10-23T14:01:30.934Z,20.3
2022-10-23T14:02:34.209Z,20.4
2022-10-23T14:03:36.732Z,20.3
2022-10-23T14:04:39.252Z,20.4
2022-10-23T14:05:41.692Z,20.4
2022-10-23T14:06:44.578Z,20.4
2022-10-23T14:07:47.320Z,20.4
2022-10-23T14:08:49.564Z,20.4
2022-10-23T14:09:52.090Z,20.5
2022-10-23T14:10:54.623Z,20.2
2022-10-23T14:11:56.566Z,20.4
2022-10-23T14:12:58.773Z,20.3
2022-10-23T14:14:01.008Z,20.3
2022-10-23T14:15:02.916Z,20.4
2022-10-23T14:16:05.417Z,20.4
2022-10-23T14:17:07.882Z,20.3
2022-10-23T14:18:10.096Z,20.3
2022-10-23T14:19:12.360Z,20.4
2022-10-23T14:21:20.034Z,20.4